createdAt,value
2023-05-05T00:01:37.157Z,99.90
2023-05-05T00:04:04.087Z,99.90
2023-05-05T00:06:31.296Z,99.90
2023-05-05T00:08:58.029Z,99.90
2023-05-05T00:11:25.920Z,99.90
2023-05-05T00:13:52.651Z,99.90
2023-05-05T00:16:19.277Z,99.90
2023-05-05T00:18:45.930Z,99.90
2023-05-05T00:21:13.362Z,99.90
2023-05-05T00:23:39.980Z,99.90
2023-05-05T00:26:06.802Z,99.90
2023-05-05T00:28:33.493Z,99.90
2023-05-05T00:31:00.480Z,99.90
2023-05-05T00:33:27.244Z,99.90
2023-05-05T00:35:53.833Z,99.90
2023-05-05T00:38:20.652Z,99.90
2023-05-05T00:40:47.222Z,99.90
2023-05-05T00:43:13.876Z,99.90
2023-05-05T00:45:42.809Z,99.90
2023-05-05T00:48:09.748Z,99.90
2023-05-05T00:50:37.353Z,99.90
2023-05-05T00:53:06.273Z,99.90
2023-05-05T00:55:34.521Z,99.90
2023-05-05T00:58:03.391Z,99.90
2023-05-05T01:00:30.839Z,99.90
2023-05-05T01:02:57.921Z,99.90
2023-05-05T01:05:26.917Z,99.90
2023-05-05T01:07:56.916Z,99.90
2023-05-05T01:10:44.076Z,99.90
2023-05-05T01:13:37.474Z,99.90
2023-05-05T01:16:15.584Z,99.90
2023-05-05T01:18:59.436Z,99.90
2023-05-05T01:21:31.896Z,99.90
2023-05-05T01:24:22.734Z,99.90
2023-05-05T01:27:00.219Z,99.90
2023-05-05T01:30:03.442Z,99.90
2023-05-05T01:32:33.765Z,99.90
2023-05-05T01:35:03.038Z,99.90
2023-05-05T01:37:37.238Z,99.90
2023-05-05T01:40:08.318Z,99.90
2023-05-05T01:42:37.940Z,99.90
2023-05-05T01:45:08.229Z,99.90
2023-05-05T01:47:37.515Z,99.90
2023-05-05T01:50:06.298Z,99.90
2023-05-05T01:52:35.828Z,99.90
2023-05-05T01:55:04.388Z,99.90
2023-05-05T01:57:33.067Z,99.90
2023-05-05T02:00:03.505Z,99.90
2023-05-05T02:02:31.003Z,99.90
2023-05-05T02:04:58.629Z,99.90
2023-05-05T02:07:26.493Z,99.90
2023-05-05T02:09:54.151Z,99.90
2023-05-05T02:12:21.813Z,99.90
2023-05-05T02:14:50.928Z,99.90
2023-05-05T02:17:18.516Z,99.90
2023-05-05T02:19:47.678Z,99.90
2023-05-05T02:22:16.507Z,99.90
2023-05-05T02:24:43.821Z,99.90
2023-05-05T02:27:11.619Z,99.90
2023-05-05T02:29:45.586Z,99.90
2023-05-05T02:32:18.188Z,99.90
2023-05-05T02:34:47.455Z,99.90
2023-05-05T02:37:21.288Z,99.90
2023-05-05T02:39:58.687Z,99.90
2023-05-05T02:42:29.528Z,99.90
2023-05-05T02:44:59.585Z,99.90
2023-05-05T02:47:38.395Z,99.90
2023-05-05T02:50:07.444Z,99.90
2023-05-05T02:52:35.148Z,99.90
2023-05-05T02:55:03.792Z,99.90
2023-05-05T02:57:53.523Z,99.90
2023-05-05T03:00:25.967Z,99.90
2023-05-05T03:03:14.253Z,99.90
2023-05-05T03:06:06.686Z,99.90
2023-05-05T03:08:43.927Z,99.90
2023-05-05T03:11:21.695Z,99.90
2023-05-05T03:13:55.956Z,99.90
2023-05-05T03:16:24.522Z,99.90
2023-05-05T03:18:52.387Z,99.90
2023-05-05T03:21:19.656Z,99.90
2023-05-05T03:23:46.456Z,99.90
2023-05-05T03:26:17.576Z,99.90
2023-05-05T03:28:44.374Z,99.90
2023-05-05T03:31:12.028Z,99.90
2023-05-05T03:33:38.728Z,99.90
2023-05-05T03:36:05.916Z,99.90
2023-05-05T03:38:32.608Z,99.90
2023-05-05T03:41:02.840Z,99.90
2023-05-05T03:43:29.693Z,99.90
2023-05-05T03:45:56.499Z,99.90
2023-05-05T03:48:23.203Z,99.90
2023-05-05T03:50:49.859Z,99.90
2023-05-05T03:53:16.434Z,99.90
2023-05-05T03:55:43.154Z,99.90
2023-05-05T03:58:09.796Z,99.90
2023-05-05T04:00:36.503Z,99.90
2023-05-05T04:03:03.157Z,99.90
2023-05-05T04:05:29.886Z,99.90
2023-05-05T04:07:57.821Z,99.90
2023-05-05T04:10:24.441Z,99.90
2023-05-05T04:12:51.217Z,99.90
2023-05-05T04:15:17.969Z,99.90
2023-05-05T04:17:44.673Z,99.90
2023-05-05T04:20:11.566Z,99.90
2023-05-05T04:22:38.283Z,99.90
2023-05-05T04:25:05.242Z,99.90
2023-05-05T04:27:32.058Z,99.90
2023-05-05T04:29:58.679Z,99.90
2023-05-05T04:32:25.618Z,99.90
2023-05-05T04:34:52.345Z,99.90
2023-05-05T04:37:19.392Z,99.90
2023-05-05T04:39:46.400Z,99.90
2023-05-05T04:42:12.997Z,99.90
2023-05-05T04:44:39.705Z,99.90
2023-05-05T04:47:06.332Z,99.90
2023-05-05T04:49:32.992Z,99.90
2023-05-05T04:51:59.736Z,99.90
2023-05-05T04:54:26.444Z,99.90
2023-05-05T04:56:53.220Z,99.90
2023-05-05T04:59:20.131Z,99.90
2023-05-05T05:01:46.843Z,99.90
2023-05-05T05:04:13.928Z,99.90
2023-05-05T05:06:40.656Z,99.90
2023-05-05T05:09:07.287Z,99.90
2023-05-05T05:11:33.945Z,99.90
2023-05-05T05:14:00.676Z,99.90
2023-05-05T05:16:27.396Z,99.90
2023-05-05T05:18:54.865Z,99.90
2023-05-05T05:21:21.572Z,99.90
2023-05-05T05:23:48.133Z,99.90
2023-05-05T05:26:14.750Z,99.90
2023-05-05T05:28:41.690Z,99.90
2023-05-05T05:31:08.381Z,99.90
2023-05-05T05:33:35.024Z,99.90
2023-05-05T05:36:01.882Z,99.90
2023-05-05T05:38:28.599Z,99.90
2023-05-05T05:40:55.347Z,99.90
2023-05-05T05:43:21.933Z,99.90
2023-05-05T05:45:48.593Z,99.90
2023-05-05T05:48:15.348Z,99.90
2023-05-05T05:50:41.941Z,99.90
2023-05-05T05:53:08.580Z,99.90
2023-05-05T05:55:35.623Z,99.90
2023-05-05T05:58:02.205Z,99.90
2023-05-05T06:00:28.849Z,99.90
2023-05-05T06:02:55.549Z,99.90
2023-05-05T06:05:22.354Z,99.90
2023-05-05T06:07:48.963Z,99.90
2023-05-05T06:10:27.577Z,99.90
2023-05-05T06:12:56.647Z,99.90
2023-05-05T06:15:23.481Z,99.90
2023-05-05T06:17:50.330Z,99.90
2023-05-05T06:20:16.993Z,99.90
2023-05-05T06:22:43.874Z,99.90
2023-05-05T06:25:11.012Z,99.90
2023-05-05T06:27:37.595Z,99.90
2023-05-05T06:30:04.577Z,99.90
2023-05-05T06:32:31.369Z,99.90
2023-05-05T06:34:57.948Z,99.90
2023-05-05T06:37:24.603Z,99.90
2023-05-05T06:39:51.190Z,99.90
2023-05-05T06:42:17.898Z,99.90
2023-05-05T06:44:44.500Z,99.90
2023-05-05T06:47:11.275Z,99.90
2023-05-05T06:49:37.878Z,99.90
2023-05-05T06:52:04.611Z,99.90
2023-05-05T06:54:31.282Z,99.90
2023-05-05T06:56:59.552Z,99.90
2023-05-05T06:59:26.999Z,99.90
2023-05-05T07:01:53.630Z,99.90
2023-05-05T07:04:21.338Z,99.90
2023-05-05T07:06:47.990Z,99.90
2023-05-05T07:09:16.933Z,99.90
2023-05-05T07:11:44.048Z,99.90
2023-05-05T07:14:10.846Z,99.90
2023-05-05T07:16:37.530Z,99.90
2023-05-05T07:19:06.215Z,99.90
2023-05-05T07:21:34.289Z,99.90
2023-05-05T07:24:02.183Z,99.90
2023-05-05T07:26:29.064Z,99.90
2023-05-05T07:28:57.165Z,99.90
2023-05-05T07:31:23.812Z,99.90
2023-05-05T07:33:50.660Z,99.90
2023-05-05T07:36:18.339Z,99.90
2023-05-05T07:38:45.132Z,99.90
2023-05-05T07:41:12.948Z,99.90
2023-05-05T07:43:44.400Z,99.90
2023-05-05T07:46:11.562Z,99.90
2023-05-05T07:48:41.565Z,99.90
2023-05-05T07:51:09.178Z,99.90
2023-05-05T07:53:35.901Z,99.90
2023-05-05T07:56:02.834Z,99.90
2023-05-05T07:58:29.457Z,99.90
2023-05-05T08:00:56.342Z,99.90
2023-05-05T08:03:24.695Z,99.90
2023-05-05T08:05:56.421Z,99.90
2023-05-05T08:08:24.679Z,99.90
2023-05-05T08:10:52.901Z,99.90
2023-05-05T08:13:19.732Z,99.90
2023-05-05T08:15:46.542Z,99.90
2023-05-05T08:18:13.825Z,99.90
2023-05-05T08:20:40.721Z,99.90
2023-05-05T08:23:07.383Z,99.90
2023-05-05T08:25:34.209Z,99.90
2023-05-05T08:28:00.909Z,99.90
2023-05-05T08:30:27.660Z,99.90
2023-05-05T08:32:55.156Z,99.90
2023-05-05T08:35:22.292Z,99.90
2023-05-05T08:37:50.102Z,99.90
2023-05-05T08:40:16.909Z,99.90
2023-05-05T08:42:45.575Z,99.90
2023-05-05T08:45:12.412Z,99.90
2023-05-05T08:47:39.660Z,99.90
2023-05-05T08:50:09.799Z,99.90
2023-05-05T08:52:44.786Z,99.90
2023-05-05T08:55:24.002Z,99.90
2023-05-05T08:57:58.186Z,99.90
2023-05-05T09:00:26.909Z,99.90
2023-05-05T09:02:56.919Z,99.90
2023-05-05T09:05:24.191Z,99.90
2023-05-05T09:07:51.608Z,99.90
2023-05-05T09:10:18.489Z,99.90
2023-05-05T09:12:45.602Z,99.90
2023-05-05T09:15:14.297Z,99.90
2023-05-05T09:17:44.125Z,99.90
2023-05-05T09:20:12.586Z,99.90
2023-05-05T09:22:40.084Z,99.90
2023-05-05T09:25:09.589Z,99.90
2023-05-05T09:27:37.995Z,99.90
2023-05-05T09:30:09.057Z,99.90
2023-05-05T09:32:47.142Z,99.90
2023-05-05T09:35:14.385Z,99.90
2023-05-05T09:37:41.130Z,99.90
2023-05-05T09:40:09.222Z,99.90
2023-05-05T09:42:37.772Z,99.90
2023-05-05T09:45:17.645Z,99.90
2023-05-05T09:47:46.051Z,99.90
2023-05-05T09:50:18.276Z,99.20
2023-05-05T09:52:57.737Z,97.90
2023-05-05T09:55:25.479Z,98.50
2023-05-05T09:57:52.637Z,98.80
2023-05-05T10:00:19.994Z,99.00
2023-05-05T10:02:46.747Z,98.50
2023-05-05T10:05:14.747Z,97.30
2023-05-05T10:07:43.560Z,97.90
2023-05-05T10:10:16.192Z,96.80
2023-05-05T10:12:43.599Z,95.70
2023-05-05T10:15:11.982Z,96.60
2023-05-05T10:18:02.377Z,95.90
2023-05-05T10:20:34.830Z,94.90
2023-05-05T10:23:05.374Z,95.70
2023-05-05T10:25:37.847Z,94.90
2023-05-05T10:28:09.727Z,94.90
2023-05-05T10:30:42.220Z,94.80
2023-05-05T10:33:31.910Z,94.60
2023-05-05T10:36:02.231Z,95.00
2023-05-05T10:38:32.626Z,95.10
2023-05-05T10:41:02.319Z,94.50
2023-05-05T10:43:30.811Z,94.00
2023-05-05T10:45:58.827Z,93.90
2023-05-05T10:48:35.054Z,93.90
2023-05-05T10:51:38.802Z,93.80
2023-05-05T10:54:32.777Z,93.90
2023-05-05T10:57:04.743Z,93.40
2023-05-05T10:59:37.868Z,93.60
2023-05-05T11:02:29.816Z,92.90
2023-05-05T11:05:21.375Z,91.50
2023-05-05T11:07:50.265Z,91.30
2023-05-05T11:10:20.369Z,91.50
2023-05-05T11:12:59.918Z,92.30
2023-05-05T11:15:26.693Z,92.90
2023-05-05T11:17:55.337Z,92.10
2023-05-05T11:20:37.510Z,90.90
2023-05-05T11:23:04.377Z,90.30
2023-05-05T11:25:52.465Z,90.10
2023-05-05T11:28:29.778Z,89.60
2023-05-05T11:30:56.889Z,88.20
2023-05-05T11:33:32.415Z,87.30
2023-05-05T11:36:07.339Z,87.40
2023-05-05T11:39:14.785Z,86.70
2023-05-05T11:42:20.946Z,86.90
2023-05-05T11:44:47.692Z,86.30
2023-05-05T11:47:17.095Z,86.10
2023-05-05T11:49:43.835Z,86.30
2023-05-05T11:52:12.555Z,85.40
2023-05-05T11:54:49.905Z,86.20
2023-05-05T11:57:26.906Z,83.70
2023-05-05T12:00:06.030Z,83.40
2023-05-05T12:02:33.059Z,82.90
2023-05-05T12:05:00.592Z,80.40
2023-05-05T12:07:29.546Z,81.80
2023-05-05T12:09:56.249Z,83.10
2023-05-05T12:12:38.045Z,81.10
2023-05-05T12:15:06.284Z,81.90
2023-05-05T12:17:51.229Z,81.20
2023-05-05T12:20:18.128Z,82.70
2023-05-05T12:22:44.753Z,84.10
2023-05-05T12:25:11.371Z,82.30
2023-05-05T12:27:38.552Z,82.50
2023-05-05T12:30:16.877Z,82.80
2023-05-05T12:32:44.535Z,80.20
2023-05-05T12:35:12.136Z,81.40
2023-05-05T12:37:39.252Z,80.70
2023-05-05T12:40:07.159Z,80.80
2023-05-05T12:42:38.953Z,82.80
2023-05-05T12:45:07.139Z,84.10
2023-05-05T12:47:34.916Z,85.00
2023-05-05T12:50:03.145Z,84.30
2023-05-05T12:52:50.267Z,85.60
2023-05-05T12:55:17.040Z,85.20
2023-05-05T12:58:04.467Z,84.80
2023-05-05T13:00:31.703Z,85.40
2023-05-05T13:02:58.426Z,86.20
2023-05-05T13:05:36.603Z,86.20
2023-05-05T13:08:03.385Z,86.20
2023-05-05T13:10:31.194Z,85.70
2023-05-05T13:12:58.482Z,85.80
2023-05-05T13:15:26.002Z,86.70
2023-05-05T13:18:02.741Z,86.10
2023-05-05T13:20:29.536Z,88.10
2023-05-05T13:22:56.234Z,88.90
2023-05-05T13:25:23.088Z,87.30
2023-05-05T13:27:49.824Z,86.20
2023-05-05T13:30:16.537Z,85.20
2023-05-05T13:32:43.139Z,86.00
2023-05-05T13:35:10.188Z,85.90
2023-05-05T13:37:37.244Z,84.80
2023-05-05T13:40:04.228Z,85.70
2023-05-05T13:42:30.917Z,82.60
2023-05-05T13:44:57.528Z,84.20
2023-05-05T13:47:24.337Z,83.90
2023-05-05T13:49:51.008Z,83.10
2023-05-05T13:52:18.133Z,82.50
2023-05-05T13:54:44.739Z,81.90
2023-05-05T13:57:12.284Z,84.40
2023-05-05T13:59:38.895Z,84.40
2023-05-05T14:02:06.128Z,84.70
2023-05-05T14:04:33.028Z,84.20
2023-05-05T14:07:01.068Z,85.50
2023-05-05T14:09:27.679Z,85.50
2023-05-05T14:11:54.274Z,84.90
2023-05-05T14:14:20.971Z,84.80
2023-05-05T14:16:50.041Z,85.90
2023-05-05T14:19:17.135Z,85.50
2023-05-05T14:21:43.745Z,85.50
2023-05-05T14:24:10.445Z,85.10
2023-05-05T14:26:37.164Z,86.30
2023-05-05T14:29:03.990Z,86.50
2023-05-05T14:31:30.681Z,85.60
2023-05-05T14:33:57.353Z,85.90
2023-05-05T14:36:24.090Z,85.60
2023-05-05T14:38:50.753Z,85.80
2023-05-05T14:41:17.474Z,85.50
2023-05-05T14:43:44.066Z,86.10
2023-05-05T14:46:10.919Z,85.80
2023-05-05T14:48:37.604Z,85.90
2023-05-05T14:51:04.778Z,84.60
2023-05-05T14:53:31.476Z,84.00
2023-05-05T14:55:58.065Z,84.00
2023-05-05T14:58:24.772Z,84.90
2023-05-05T15:00:55.222Z,84.40
2023-05-05T15:03:21.998Z,84.80
2023-05-05T15:05:48.642Z,84.40
2023-05-05T15:08:15.529Z,89.80
2023-05-05T15:10:42.237Z,93.60
2023-05-05T15:13:09.054Z,96.90
2023-05-05T15:15:35.768Z,99.90
2023-05-05T15:18:02.578Z,99.70
2023-05-05T15:20:29.334Z,99.90
2023-05-05T15:22:56.271Z,99.90
2023-05-05T15:25:23.109Z,99.90
2023-05-05T15:27:49.880Z,99.90
2023-05-05T15:30:16.695Z,99.90
2023-05-05T15:32:43.394Z,99.90
2023-05-05T15:35:10.412Z,99.90
2023-05-05T15:37:37.800Z,99.90
2023-05-05T15:40:05.445Z,99.90
2023-05-05T15:42:32.756Z,99.90
2023-05-05T15:45:00.918Z,99.90
2023-05-05T15:47:27.625Z,99.90
2023-05-05T15:49:54.301Z,99.90
2023-05-05T15:52:21.311Z,99.90
2023-05-05T15:54:47.971Z,99.90
2023-05-05T15:57:14.636Z,99.90
2023-05-05T15:59:41.281Z,99.90
2023-05-05T16:02:07.857Z,99.90
2023-05-05T16:04:34.539Z,99.90
2023-05-05T16:07:03.366Z,99.90
2023-05-05T16:09:29.987Z,99.90
2023-05-05T16:11:56.683Z,99.90
2023-05-05T16:14:23.359Z,99.90
2023-05-05T16:16:50.101Z,99.90
2023-05-05T16:19:18.043Z,99.90
2023-05-05T16:21:44.897Z,99.90
2023-05-05T16:24:15.965Z,99.90
2023-05-05T16:26:43.614Z,99.90
2023-05-05T16:29:10.765Z,99.90
2023-05-05T16:31:37.827Z,99.90
2023-05-05T16:34:04.801Z,99.90
2023-05-05T16:36:31.738Z,99.90
2023-05-05T16:38:58.323Z,99.90
2023-05-05T16:41:26.243Z,99.90
2023-05-05T16:43:53.558Z,99.90
2023-05-05T16:46:20.341Z,99.90
2023-05-05T16:48:47.016Z,99.90
2023-05-05T16:51:13.716Z,99.90
2023-05-05T16:53:40.352Z,99.90
2023-05-05T16:56:11.174Z,99.90
2023-05-05T16:58:37.756Z,99.90
2023-05-05T17:01:04.638Z,99.90
2023-05-05T17:03:31.219Z,99.90
2023-05-05T17:05:58.277Z,99.90
2023-05-05T17:08:24.981Z,99.90
2023-05-05T17:10:51.617Z,99.90
2023-05-05T17:13:19.051Z,99.90
2023-05-05T17:15:45.904Z,99.90
2023-05-05T17:18:12.534Z,99.90
2023-05-05T17:20:39.166Z,99.90
2023-05-05T17:23:05.820Z,99.90
2023-05-05T17:25:32.400Z,99.90
2023-05-05T17:27:58.994Z,99.90
2023-05-05T17:30:26.371Z,99.90
2023-05-05T17:32:53.370Z,99.90
2023-05-05T17:35:20.177Z,99.90
2023-05-05T17:37:46.791Z,99.90
2023-05-05T17:40:13.591Z,99.90
2023-05-05T17:42:40.526Z,99.90
2023-05-05T17:45:08.327Z,99.90
2023-05-05T17:47:36.003Z,99.90
2023-05-05T17:50:03.135Z,99.90
2023-05-05T17:52:29.806Z,99.90
2023-05-05T17:54:56.980Z,99.90
2023-05-05T17:57:23.619Z,99.90
2023-05-05T17:59:51.854Z,99.90
2023-05-05T18:02:19.090Z,99.90
2023-05-05T18:04:46.453Z,99.90
2023-05-05T18:07:14.775Z,99.90
2023-05-05T18:09:41.562Z,99.90
2023-05-05T18:12:08.309Z,99.90
2023-05-05T18:14:35.069Z,99.90
2023-05-05T18:17:01.761Z,99.90
2023-05-05T18:19:28.514Z,99.90
2023-05-05T18:21:55.139Z,99.90
2023-05-05T18:24:21.900Z,99.90
2023-05-05T18:26:52.409Z,99.90
2023-05-05T18:29:21.644Z,99.90
2023-05-05T18:31:51.430Z,99.90
2023-05-05T18:34:18.890Z,99.90
2023-05-05T18:36:46.461Z,99.90
2023-05-05T18:39:13.840Z,99.90
2023-05-05T18:41:41.100Z,99.90
2023-05-05T18:44:07.984Z,99.90
2023-05-05T18:46:34.728Z,99.90
2023-05-05T18:49:01.714Z,99.90
2023-05-05T18:51:28.638Z,99.90
2023-05-05T18:53:55.571Z,99.90
2023-05-05T18:56:22.273Z,99.90
2023-05-05T18:58:49.347Z,99.90
2023-05-05T19:01:16.364Z,99.90
2023-05-05T19:03:47.699Z,99.90
2023-05-05T19:06:15.379Z,99.90
2023-05-05T19:08:42.856Z,99.90
2023-05-05T19:11:10.054Z,99.90
2023-05-05T19:16:06.401Z,99.90
2023-05-05T19:18:33.452Z,99.90
2023-05-05T19:21:00.199Z,99.90
2023-05-05T19:23:26.906Z,99.90
2023-05-05T19:25:54.215Z,99.90
2023-05-05T19:28:21.345Z,99.90
2023-05-05T19:30:48.760Z,99.90
2023-05-05T19:33:16.108Z,99.90
2023-05-05T19:35:43.432Z,99.90
2023-05-05T19:38:10.360Z,99.90
2023-05-05T19:40:40.509Z,99.90
2023-05-05T19:43:07.654Z,99.90
2023-05-05T19:45:34.361Z,99.90
2023-05-05T19:48:01.792Z,99.90
2023-05-05T19:50:30.670Z,99.90
2023-05-05T19:52:57.848Z,99.90
2023-05-05T19:55:24.859Z,99.90
2023-05-05T19:57:51.594Z,99.90
2023-05-05T20:00:19.541Z,99.90
2023-05-05T20:02:46.432Z,99.90
2023-05-05T20:05:14.815Z,99.90
2023-05-05T20:07:44.380Z,99.90
2023-05-05T20:10:13.144Z,99.90
2023-05-05T20:12:47.512Z,99.90
2023-05-05T20:15:20.096Z,99.90
2023-05-05T20:17:47.794Z,99.90
2023-05-05T20:20:20.385Z,99.90
2023-05-05T20:22:48.143Z,99.90
2023-05-05T20:25:16.215Z,99.90
2023-05-05T20:27:43.284Z,99.90
2023-05-05T20:30:10.911Z,99.90
2023-05-05T20:32:37.999Z,99.90
2023-05-05T20:35:05.996Z,99.90
2023-05-05T20:37:32.692Z,99.90
2023-05-05T20:39:59.289Z,99.90
2023-05-05T20:42:27.657Z,99.90
2023-05-05T20:44:54.347Z,99.90
2023-05-05T20:47:21.068Z,99.90
2023-05-05T20:49:47.658Z,99.90
2023-05-05T20:52:14.327Z,99.90
2023-05-05T20:54:40.980Z,99.90
2023-05-05T20:57:07.593Z,99.90
2023-05-05T20:59:34.323Z,99.90
2023-05-05T21:02:01.010Z,99.90
2023-05-05T21:04:27.742Z,99.90
2023-05-05T21:06:54.424Z,99.90
2023-05-05T21:09:23.760Z,99.90
2023-05-05T21:11:50.536Z,99.90
2023-05-05T21:14:17.315Z,99.90
2023-05-05T21:16:44.013Z,99.90
2023-05-05T21:19:10.729Z,99.90
2023-05-05T21:21:37.338Z,99.90
2023-05-05T21:24:05.600Z,99.90
2023-05-05T21:26:34.295Z,99.90
2023-05-05T21:29:00.978Z,99.90
2023-05-05T21:31:27.596Z,99.90
2023-05-05T21:33:54.254Z,99.90
2023-05-05T21:36:21.303Z,99.90
2023-05-05T21:38:48.152Z,99.90
2023-05-05T21:41:14.808Z,99.90
2023-05-05T21:43:41.537Z,99.90
2023-05-05T21:46:09.047Z,99.90
2023-05-05T21:48:38.622Z,99.90
2023-05-05T21:51:05.515Z,99.90
2023-05-05T21:53:32.076Z,99.90
2023-05-05T21:55:59.027Z,99.90
2023-05-05T21:58:25.628Z,99.90
2023-05-05T22:00:52.506Z,99.90
2023-05-05T22:03:19.284Z,99.90
2023-05-05T22:05:46.143Z,99.90
2023-05-05T22:08:12.776Z,99.90
2023-05-05T22:10:39.542Z,99.90
2023-05-05T22:13:06.328Z,99.90
2023-05-05T22:15:45.425Z,99.90
2023-05-05T22:18:13.947Z,99.90
2023-05-05T22:20:40.665Z,99.90
2023-05-05T22:23:07.348Z,99.90
2023-05-05T22:25:33.953Z,99.90
2023-05-05T22:28:00.678Z,99.90
2023-05-05T22:30:27.248Z,99.90
2023-05-05T22:32:54.147Z,99.90
2023-05-05T22:35:20.874Z,99.90
2023-05-05T22:37:47.477Z,99.90
2023-05-05T22:40:14.177Z,99.90
2023-05-05T22:42:40.943Z,99.90
2023-05-05T22:45:08.567Z,99.90
2023-05-05T22:47:35.756Z,99.90
2023-05-05T22:50:02.699Z,99.90
2023-05-05T22:52:29.452Z,99.90
2023-05-05T22:54:56.281Z,99.90
2023-05-05T22:57:23.024Z,99.90
2023-05-05T22:59:50.395Z,99.90
2023-05-05T23:02:16.983Z,99.90
2023-05-05T23:04:44.822Z,99.90
2023-05-05T23:07:12.718Z,99.90
2023-05-05T23:09:39.667Z,99.90
2023-05-05T23:12:06.610Z,99.90
2023-05-05T23:14:33.319Z,99.90
2023-05-05T23:16:59.954Z,99.90
2023-05-05T23:19:28.994Z,99.90
2023-05-05T23:21:55.708Z,99.90
2023-05-05T23:24:22.445Z,99.90
2023-05-05T23:26:49.084Z,99.90
2023-05-05T23:29:15.659Z,99.90
2023-05-05T23:31:42.360Z,99.90
2023-05-05T23:34:09.094Z,99.90
2023-05-05T23:36:35.839Z,99.90
2023-05-05T23:39:02.486Z,99.90
2023-05-05T23:41:29.118Z,99.90
2023-05-05T23:43:56.721Z,99.90
2023-05-05T23:46:24.072Z,99.90
2023-05-05T23:48:51.110Z,99.90
2023-05-05T23:51:17.896Z,99.90
2023-05-05T23:53:44.486Z,99.90
2023-05-05T23:56:11.365Z,99.90
2023-05-05T23:58:38.049Z,99.90
